Reklama

Seznam meteostanic a jejich METAR

Vyhledat místa podle abecedy:
A B C D E F G H I J K L M N O P Q R S T U V W X Y Z

Filtrovat:

ID stanice:
a/nebo
Název místa (fulltext):
 
Místo (ID)Naposledy načteno 
Kadaň - Tušimice (Tusimice) 04.06.2020 08:00 UTC Zobrazit data
Místo: Kadaň - Tušimice
Teplota: 16 °C (pocitová: 14.6 °C)
Vítr: 2 m/s z(e) 0°
Počasí: skoro zataženo
Dohlednost: 25 km
Zákl. oblačnosti: 1/8 1200 m;6/8 4200 m
Vlhkost: 77%
Karlovy Vary (K.Vary) 04.06.2020 08:00 UTC Zobrazit data
Místo: Karlovy Vary
Teplota: 15 °C (pocitová: 12.7 °C)
Vítr: 3 m/s z(e) 130°
Počasí: skoro zataženo
Dohlednost: 40 km
Zákl. oblačnosti: 7/8 2700 m
Vlhkost: 77%
Kocelovice (Kocelovice) 04.06.2020 08:00 UTC Zobrazit data
Místo: Kocelovice
Teplota: 17 °C (pocitová: 16.6 °C)
Vítr: 1 m/s z(e) 0°
Počasí: skoro zataženo
Dohlednost: 27 km
Zákl. oblačnosti: 5/8 3900 m;3/8 7800 m
Vlhkost: 68%
Kopisty (Kopisty) 04.06.2020 06:00 UTC Zobrazit data
Místo: Kopisty
Teplota: 14 °C (pocitová: 21.8 °C)
Vítr: 0 m/s z(e) 0°
Počasí: skoro zataženo
Dohlednost: 35 km
Zákl. oblačnosti: 2/8 2700 m;6/8 6900 m
Vlhkost: 94%
Kostelní Myslová (K.Myslova) 04.06.2020 08:00 UTC Zobrazit data
Místo: Kostelní Myslová
Teplota: 17 °C (pocitová: 15.3 °C)
Vítr: 3 m/s z(e) 120°
Počasí: skoro zataženo
Dohlednost: 45 km
Zákl. oblačnosti: 1/8 3900 m;7/8 9000 m
Vlhkost: 59%
Křešín - Kramolín (Kramolin) 04.06.2020 08:00 UTC Zobrazit data
Místo: Křešín - Kramolín
Teplota: 19 °C (pocitová: 18 °C)
Vítr: 3 m/s z(e) 150°
Počasí: skoro zataženo
Dohlednost: 35 km
Zákl. oblačnosti: 2/8 3600 m;7/8 8400 m
Vlhkost: 56%
Kuchařovice - Znojmo (Kucharovic) 04.06.2020 08:00 UTC Zobrazit data
Místo: Kuchařovice - Znojmo
Teplota: 18 °C (pocitová: 16.7 °C)
Vítr: 3 m/s z(e) 130°
Počasí: skoro zataženo
Dohlednost: 40 km
Zákl. oblačnosti: 4/8 9000 m;6/8 9000 m
Vlhkost: 64%
Kabul (OAKB) 04.06.2020 07:50 UTC Zobrazit METAR
OAKB 040750Z 35015G26KT 9999 SCT100 29/03 Q1014 RMK A2996 BLU BLU
Kajaani (EFKI) 04.06.2020 07:50 UTC Zobrazit METAR
EFKI 040750Z AUTO 11011KT 080V170 CAVOK 19/01 Q1011
Kardla (EEKA) 04.06.2020 04:50 UTC Zobrazit METAR
EEKA 040450Z VRB02KT 9999 BKN040 11/08 Q1006
Karlsruhe/ Baden-Baden (EDSB) 04.06.2020 07:50 UTC Zobrazit METAR
EDSB 040750Z 21009KT 5000 -RADZ BR FEW007 SCT009 OVC030 16/15 Q0997
Karup (EKKA) 04.06.2020 07:50 UTC Zobrazit METAR
EKKA 040750Z AUTO 10007KT 9999 -RA BKN070/// 13/10 Q0996 TEMPO 7000 -SHRA SCT050CB
Kathmandu (VNKT) 04.06.2020 06:50 UTC Zobrazit METAR
VNKT 040650Z 24005KT 8000 DZ FEW015 SCT030 BKN100 24/17 Q1014 NOSIG
Katowice (EPKT) 04.06.2020 08:00 UTC Zobrazit METAR
EPKT 040800Z 12009KT 100V180 CAVOK 18/05 Q1000
Kaunas (EYKA) 04.06.2020 07:50 UTC Zobrazit METAR
EYKA 040750Z 13005KT 080V160 9999 SCT028 BKN036 14/08 Q1002
Kavala (LGKV) 04.06.2020 07:50 UTC Zobrazit METAR
LGKV 040750Z VRB04KT 9999 FEW025 21/14 Q1011
Kazan (UWKD) Zatím nenačteno  
Kefallinia (LGKF) 04.06.2020 07:50 UTC Zobrazit METAR
LGKF 040750Z 20004KT 9999 FEW014 20/17 Q1013
Kemi (EFKE) 04.06.2020 07:50 UTC Zobrazit METAR
EFKE 040750Z AUTO 17005KT 120V200 CAVOK 15/07 Q1011
Kerkira (LGKR) 04.06.2020 07:50 UTC Zobrazit METAR
LGKR 040750Z 11007KT 9999 FEW025 22/15 Q1012 NOSIG
Kerry (EIKY) 04.06.2020 08:00 UTC Zobrazit METAR
EIKY 040800Z 29005KT 240V340 5000 -RA SCT008 BKN018 OVC022 11/10 Q1012
Khartoum (HSSS) 04.06.2020 08:00 UTC Zobrazit METAR
HSSS 040800Z 23007KT CAVOK 37/13 Q1011 NOSIG
Kigali (HRYR) 04.06.2020 08:00 UTC Zobrazit METAR
HRYR 040800Z 15007KT 100V200 9999 FEW025 SCT300 23/15 Q1025 NOSIG
Kingston (MKJP) 04.06.2020 08:00 UTC Zobrazit METAR
MKJP 040800Z 13020KT 9999 -SHRA SCT022 28/24 Q1012
Kingstown (TVSV) 13.12.2019 20:43 UTC Zobrazit METAR
TVSV 132043Z 12005G18KT 4000 SHRA BKN014 27/23 Q1010
Kinshasa (FZAA) 04.06.2020 08:00 UTC Zobrazit METAR
FZAA 040800Z 25004KT 4000 BR BKN016 25/23 Q1016 NOSIG
Kittila (EFKT) 04.06.2020 07:50 UTC Zobrazit METAR
EFKT 040750Z AUTO 09005KT 070V140 9999 OVC004 10/09 Q1012
Klagenfurt (LOWK) 04.06.2020 07:50 UTC Zobrazit METAR
LOWK 040750Z VRB01KT 9999 FEW035 SCT090 20/11 Q1002 NOSIG
Kortrijk-Wevelgem (EBKT) Zatím nenačteno  
Kosice (LZKZ) 04.06.2020 08:00 UTC Zobrazit METAR
LZKZ 040800Z VRB03KT 9999 FEW016 SCT020 BKN024 15/11 Q1003 NOSIG
Krakow (EPKK) 04.06.2020 08:00 UTC Zobrazit METAR
EPKK 040800Z 08008KT 040V100 CAVOK 17/08 Q1001
Kuala Lumpur (WMKK) 03.06.2020 15:00 UTC Zobrazit METAR
WMKK 031500Z 05004KT 350V140 9999 FEW030 29/25 Q1010 NOSIG
Kuopio (EFKU) 04.06.2020 07:50 UTC Zobrazit METAR
EFKU 040750Z AUTO 10006KT 040V140 CAVOK 18/04 Q1010
Kuressaare (EEKE) 04.06.2020 07:50 UTC Zobrazit METAR
EEKE 040750Z 07004KT 020V180 9999 FEW011 BKN013 16/12 Q1004
Kuwait (OKBK) 04.06.2020 08:00 UTC Zobrazit METAR
OKBK 040800Z 01018KT 7000 -BLDU SKC 43/08 Q1006 NOSIG
Kyiv (UKBB) Zatím nenačteno  
Reklama

Lunární kalendář

  • zítraFáze měsíce uplnek
  • 13.06.Fáze měsíce posl_ctvrt
  • 21.06.Fáze měsíce nov
  • 28.06.Fáze měsíce prv_ctvrt



Reklama
Meteodomečky

Počasí na Váš email

Emaily jsou bez reklamy a bez spamu



Odhlásit newsletter

Reklama


Další české internetové stránky (nejen) o počasí najdete v katalogu TOPlist - weby o počasí nebo vyhledejte na internetu, co jste tu na 🌞 Slunečnu ⛅ zatím nenašli:

Reklama